Taumarunui, New Zealand
Current Conditions -  °F | °C
As of 11:00 AM on Wednesday 28 Jan 2015 (Local Time) from NZAA Reporting Station
Broken Clouds Broken Clouds  
Wind Chill: 77°   Ceiling: 4700
Heat Index: 79°   Visibility: 6mi
Dew Point: 61°   Wind: 9mph
Humidity: 57%   Direction: 150°SSE
Pressure: 29.8"   Gusts: NA
Location:  38.88°S, 175.27°E
Report Text: NZAA 272300Z AUTO 15008KT 100V190 9999 SCT040/// BKN047///25/16 Q1009 NOSIG
Loading
Personal Weather Stations






























Interactive Weather Map New forecast layout! Learn more

10-Day Weather Forecast

Advertisements
Track Severe Weather on mobile